Time;durP1;ratioP1;P1;durP2;ratioP2;P2;SDS_P1;SDS_P2;PMS_P1;PMS_P2;Temp;Humidity;BMP_temperature;BMP_pressure;BME280_temperature;BME280_humidity;BME280_pressure;Samples;Min_cycle;Max_cycle;Signal;HPM_P1;HPM_P2
2021/08/21 06:53:29;;;;;;;29.30;5.10;;;;;;;21.06;56.84;99171.63;5518293;23;20108;-87
2021/08/21 06:56:01;;;;;;;24.05;4.40;;;;;;;21.23;55.57;99177.69;4947752;29;20074;-87
2021/08/21 06:58:28;;;;;;;37.22;5.40;;;;;;;21.22;55.49;99185.22;4951965;29;20518;-89
2021/08/21 07:00:55;;;;;;;21.73;4.57;;;;;;;21.07;55.91;99172.41;4928482;29;20082;-86
2021/08/21 07:03:24;;;;;;;19.40;4.57;;;;;;;20.94;55.51;99154.47;4915792;29;20051;-88
2021/08/21 07:05:50;;;;;;;37.40;6.38;;;;;;;21.34;56.02;99204.38;4917199;29;20103;-83
2021/08/21 07:08:16;;;;;;;17.23;4.40;;;;;;;21.34;56.34;99193.25;4918739;29;20040;-84
2021/08/21 07:10:42;;;;;;;85.28;10.10;;;;;;;21.41;56.53;99195.28;4916275;29;20054;-84
2021/08/21 07:13:09;;;;;;;14.65;4.70;;;;;;;21.44;55.85;99193.72;4916414;29;20097;-83
2021/08/21 07:15:35;;;;;;;27.80;4.83;;;;;;;21.43;55.15;99195.72;4916212;29;20052;-85
2021/08/21 07:18:01;;;;;;;15.50;4.73;;;;;;;21.41;56.15;99169.47;4915893;29;20139;-84
2021/08/21 07:20:27;;;;;;;31.67;5.13;;;;;;;21.53;56.26;99158.00;4916045;29;20051;-90
2021/08/21 07:22:53;;;;;;;35.07;5.67;;;;;;;21.57;55.68;99153.25;4899827;29;20150;-90
2021/08/21 07:25:19;;;;;;;23.03;4.80;;;;;;;21.64;55.66;99166.41;4914853;29;20815;-90
2021/08/21 07:27:45;;;;;;;23.57;5.13;;;;;;;21.62;56.48;99172.34;4916229;29;20043;-80
2021/08/21 07:30:11;;;;;;;39.00;5.70;;;;;;;21.75;55.47;99170.81;4926359;29;20085;-88
2021/08/21 07:32:37;;;;;;;32.58;5.07;;;;;;;21.80;55.02;99175.22;4917846;29;20527;-84
2021/08/21 07:35:04;;;;;;;40.90;7.33;;;;;;;21.79;55.77;99188.34;4933686;29;20044;-86
2021/08/21 07:37:31;;;;;;;18.83;4.95;;;;;;;21.90;55.68;99184.78;4934903;29;20505;-85
2021/08/21 07:39:57;;;;;;;71.65;8.88;;;;;;;21.83;55.47;99184.75;4933004;29;20126;-82
2021/08/21 07:42:24;;;;;;;;;;;;;;;21.85;55.22;99187.94;4935080;29;20043;-81
2021/08/21 07:44:50;;;;;;;22.70;6.43;;;;;;;21.80;54.85;99192.69;4934853;29;19929;-81
2021/08/21 07:47:16;;;;;;;;;;;;;;;21.86;54.89;99184.78;4937085;29;20462;-82
2021/08/21 07:49:42;;;;;;;50.30;6.10;;;;;;;22.03;54.66;99183.22;4937987;29;20024;-83
2021/08/21 07:52:09;;;;;;;30.75;6.15;;;;;;;22.15;55.30;99188.47;4936825;29;20039;-84
2021/08/21 07:54:35;;;;;;;30.60;5.57;;;;;;;22.19;54.23;99183.72;4954289;29;20500;-85
2021/08/21 07:57:02;;;;;;;;;;;;;;;22.16;54.52;99190.06;4940063;29;20044;-83
2021/08/21 07:59:28;;;;;;;;;;;;;;;22.04;54.31;99191.19;4950606;29;19929;-84
2021/08/21 08:01:53;;;;;;;18.45;4.28;;;;;;;21.86;54.88;99184.78;4936238;29;20347;-81
2021/08/21 08:04:19;;;;;;;12.33;4.63;;;;;;;21.87;54.48;99191.94;4937644;29;20044;-86
2021/08/21 08:06:47;;;;;;;35.15;6.50;;;;;;;21.93;54.77;99187.56;4937979;29;20059;-80
2021/08/21 08:09:13;;;;;;;26.73;5.93;;;;;;;22.05;55.07;99172.50;4937785;29;20079;-81
2021/08/21 08:11:40;;;;;;;16.80;4.80;;;;;;;22.01;54.44;99186.41;4936940;29;20048;-81
2021/08/21 08:14:07;;;;;;;;;;;;;;;21.85;54.06;99185.94;4937769;29;20078;-81
2021/08/21 08:16:33;;;;;;;25.55;5.05;;;;;;;21.87;55.31;99180.78;4944134;29;20001;-81
2021/08/21 08:19:01;;;;;;;60.38;8.30;;;;;;;22.10;54.99;99191.59;4954006;29;20059;-86
2021/08/21 08:21:28;;;;;;;77.00;9.68;;;;;;;22.08;54.50;99196.75;4954676;28;20175;-82
2021/08/21 08:23:55;;;;;;;22.93;5.50;;;;;;;21.99;54.51;99197.16;4934398;29;20520;-80
2021/08/21 08:26:22;;;;;;;23.48;5.50;;;;;;;22.14;55.53;99199.97;4935252;29;20040;-85
2021/08/21 08:28:48;;;;;;;22.93;5.50;;;;;;;21.97;54.48;99204.28;4935353;29;20073;-82
2021/08/21 08:31:16;;;;;;;26.40;6.50;;;;;;;21.94;54.36;99183.59;4934118;29;20059;-81
2021/08/21 08:33:42;;;;;;;30.38;6.97;;;;;;;21.93;54.76;99184.78;4936978;29;20754;-79
2021/08/21 08:36:10;;;;;;;16.08;4.82;;;;;;;22.11;53.49;99203.53;4947946;28;20047;-80
2021/08/21 08:38:38;;;;;;;32.83;5.50;;;;;;;22.12;54.48;99202.34;4936550;29;21460;-89
2021/08/21 08:41:09;;;;;;;16.77;4.93;;;;;;;22.01;54.00;99210.66;4936754;29;20413;-83
2021/08/21 08:43:35;;;;;;;29.20;7.40;;;;;;;22.00;54.41;99206.28;4937285;29;20061;-80
2021/08/21 08:46:02;;;;;;;13.07;5.13;;;;;;;21.86;54.62;99195.13;4936769;29;20048;-83
2021/08/21 08:48:33;;;;;;;46.60;7.00;;;;;;;22.07;55.22;99197.94;4935577;29;20415;-81
2021/08/21 08:51:00;;;;;;;29.70;6.43;;;;;;;22.15;54.77;99187.63;4935962;29;20067;-89
2021/08/21 08:53:26;;;;;;;19.80;5.28;;;;;;;22.16;54.09;99190.06;4936835;29;20515;-85
2021/08/21 08:55:51;;;;;;;9.90;4.73;;;;;;;22.24;53.73;99197.22;4935511;29;20040;-87
2021/08/21 08:58:17;;;;;;;36.53;6.43;;;;;;;22.08;54.14;99173.69;4952191;28;20087;-84
2021/08/21 09:00:43;;;;;;;17.07;4.37;;;;;;;22.08;53.64;99202.31;4954448;29;20094;-83
2021/08/21 09:03:20;;;;;;;11.57;4.55;;;;;;;22.02;54.32;99198.34;4950335;29;20074;-85
2021/08/21 09:05:46;;;;;;;13.82;4.57;;;;;;;22.16;54.32;99195.63;4933999;29;20524;-83
2021/08/21 09:08:26;;;;;;;35.15;7.00;;;;;;;22.38;53.94;99209.59;4951050;29;20154;-84
2021/08/21 09:10:55;;;;;;;21.92;6.32;;;;;;;22.70;53.94;99192.91;4937573;29;20051;-84
2021/08/21 09:13:21;;;;;;;55.63;9.60;;;;;;;22.70;53.33;99196.50;4945878;29;20084;-87
2021/08/21 09:15:58;;;;;;;42.40;7.68;;;;;;;22.81;52.31;99201.25;4953837;29;20039;-87
2021/08/21 09:18:29;;;;;;;39.72;6.88;;;;;;;22.96;53.53;99205.69;4955269;28;20408;-85
2021/08/21 09:21:04;;;;;;;22.63;6.53;;;;;;;22.82;51.91;99195.31;4939719;28;20043;-84
2021/08/21 09:23:41;;;;;;;15.88;4.90;;;;;;;22.77;52.46;99214.41;4938406;28;20409;-88
2021/08/21 09:26:30;;;;;;;25.90;5.00;;;;;;;22.65;53.06;99208.03;4945765;29;20044;-86
2021/08/21 09:28:59;;;;;;;73.20;8.07;;;;;;;22.55;53.62;99211.63;4941771;29;20081;-89
2021/08/21 09:31:33;;;;;;;15.02;4.82;;;;;;;22.50;53.51;99215.56;4927466;29;20051;-90
2021/08/21 09:34:02;;;;;;;18.52;5.95;;;;;;;22.55;53.37;99217.19;4939440;29;20125;-91
2021/08/21 09:36:37;;;;;;;26.60;5.80;;;;;;;22.53;53.85;99216.78;4940759;29;20039;-91
2021/08/21 09:39:06;;;;;;;;;;;;;;;22.58;53.08;99213.59;4946448;29;20095;-87
2021/08/21 09:41:51;;;;;;;10.02;4.28;;;;;;;22.58;54.02;99210.81;4939613;29;19930;-85
2021/08/21 09:44:29;;;;;;;10.98;4.88;;;;;;;22.62;54.54;99213.63;4936490;29;20055;-84
2021/08/21 09:47:23;;;;;;;22.02;5.53;;;;;;;22.80;54.48;99214.41;4936153;29;20047;-79
2021/08/21 09:49:50;;;;;;;21.73;5.43;;;;;;;22.84;53.17;99206.03;4934912;29;20043;-90
2021/08/21 09:52:18;;;;;;;40.67;6.82;;;;;;;22.92;53.98;99200.09;4936360;29;20040;-89
2021/08/21 09:55:04;;;;;;;19.92;5.18;;;;;;;23.06;53.51;99215.25;4933359;29;20524;-87
2021/08/21 09:57:30;;;;;;;;;;;;;;;23.13;53.14;99226.38;4937249;29;20572;-84
2021/08/21 09:59:59;;;;;;;15.70;5.18;;;;;;;23.13;52.88;99207.66;4936625;29;19988;-87
2021/08/21 10:02:29;;;;;;;42.25;6.57;;;;;;;23.42;52.98;99213.97;4937032;29;20568;-87
2021/08/21 10:04:55;;;;;;;21.88;5.43;;;;;;;23.50;52.71;99217.53;4932386;29;20047;-86
2021/08/21 10:07:28;;;;;;;16.05;5.03;;;;;;;23.48;52.23;99221.94;4917408;29;20052;-89
2021/08/21 10:09:55;;;;;;;12.73;4.75;;;;;;;23.45;52.26;99229.91;4914931;29;20414;-85
2021/08/21 10:12:23;;;;;;;13.68;5.05;;;;;;;23.44;51.84;99208.81;4917365;29;20072;-86
2021/08/21 10:14:50;;;;;;;21.90;5.45;;;;;;;23.44;52.00;99216.34;4916036;29;20071;-87
2021/08/21 10:17:20;;;;;;;16.30;5.10;;;;;;;23.49;52.40;99217.97;4916968;29;20059;-87
2021/08/21 10:19:48;;;;;;;15.30;4.93;;;;;;;23.41;51.29;99226.34;4917071;29;20063;-84
2021/08/21 10:22:15;;;;;;;10.90;4.60;;;;;;;23.24;51.81;99215.19;4915936;29;20098;-89
2021/08/21 10:24:47;;;;;;;15.93;4.85;;;;;;;23.21;51.50;99206.47;4923621;29;20036;-85
2021/08/21 10:27:21;;;;;;;16.42;5.13;;;;;;;23.34;51.72;99219.97;4933182;29;20079;-90
2021/08/21 10:30:20;;;;;;;28.90;6.25;;;;;;;23.33;52.68;99218.38;4935186;29;20052;-86
2021/08/21 10:33:00;;;;;;;14.25;5.07;;;;;;;23.16;53.01;99214.44;4909956;29;20949;-81
2021/08/21 10:35:45;;;;;;;38.65;7.25;;;;;;;23.32;53.42;99211.22;4916750;29;20115;-86
2021/08/21 10:38:33;;;;;;;51.05;6.53;;;;;;;23.47;52.15;99217.56;4934342;29;20051;-85
2021/08/21 10:41:11;;;;;;;21.90;5.88;;;;;;;23.54;52.51;99220.31;4903352;29;20134;-81
2021/08/21 12:56:26;;;;;;;13.52;4.25;;;;;;;23.36;49.47;99203.63;4961874;23;20056;-86
2021/08/21 12:59:09;;;;;;;31.73;6.28;;;;;;;23.57;49.68;99214.72;4862879;29;20104;-86
2021/08/21 13:01:36;;;;;;;135.73;12.73;;;;;;;23.32;49.28;99200.06;4879593;29;20040;-88
2021/08/21 13:04:06;;;;;;;;;;;;;;;23.29;50.09;99226.75;4878703;29;20131;-88
2021/08/21 13:06:34;;;;;;;182.23;14.05;;;;;;;23.29;49.16;99189.72;4879178;29;19930;-88
2021/08/21 13:09:00;;;;;;;65.55;8.48;;;;;;;23.38;48.44;99220.78;4879882;29;20167;-87
2021/08/21 13:11:26;;;;;;;88.78;11.52;;;;;;;23.34;48.50;99228.34;4877452;29;20049;-87
2021/08/21 13:13:52;;;;;;;68.27;8.30;;;;;;;23.38;50.43;99221.56;4878746;29;20399;-88
2021/08/21 13:16:19;;;;;;;;;;;;;;;23.39;48.52;99211.19;4877367;29;20301;-88
2021/08/21 13:18:45;;;;;;;26.55;6.25;;;;;;;23.23;48.17;99205.25;4868174;29;19923;-88
2021/08/21 13:21:11;;;;;;;56.03;7.00;;;;;;;23.04;48.36;99200.88;4889107;29;20075;-87
2021/08/21 13:23:37;;;;;;;39.77;6.00;;;;;;;22.75;48.11;99189.75;4888014;29;20044;-88
2021/08/21 13:26:05;;;;;;;31.30;5.63;;;;;;;22.53;48.43;99200.06;4882676;29;20301;-86
2021/08/21 13:28:32;;;;;;;38.03;7.10;;;;;;;22.68;49.18;99201.69;4879143;29;20499;-88
2021/08/21 13:30:59;;;;;;;27.63;5.70;;;;;;;22.59;48.73;99206.06;4887114;29;20045;-81
2021/08/21 13:33:25;;;;;;;37.93;5.30;;;;;;;22.68;48.89;99200.88;4880564;29;20068;-87
2021/08/21 13:35:51;;;;;;;40.17;5.57;;;;;;;22.84;47.99;99208.84;4891110;29;20040;-88
2021/08/21 13:38:16;;;;;;;109.93;10.17;;;;;;;22.94;48.64;99208.84;4894799;29;20297;-89
2021/08/21 13:40:44;;;;;;;41.13;7.60;;;;;;;22.74;47.89;99197.28;4885896;29;20087;-88
2021/08/21 13:43:10;;;;;;;33.50;6.07;;;;;;;23.00;47.62;99222.41;4882851;29;20544;-88
2021/08/21 13:45:36;;;;;;;24.67;5.10;;;;;;;23.09;47.03;99204.09;4859716;29;20415;-89
2021/08/21 13:48:03;;;;;;;88.37;9.23;;;;;;;23.23;47.26;99216.41;4859193;29;20806;-88
2021/08/21 13:50:29;;;;;;;37.95;6.88;;;;;;;23.02;47.95;99231.97;4884481;29;20131;-89
2021/08/21 13:52:55;;;;;;;35.85;5.85;;;;;;;22.87;48.29;99228.34;4893167;29;20049;-79
2021/08/21 13:55:21;;;;;;;;;;;;;;;22.96;47.76;99236.34;4886168;29;20056;-88
2021/08/21 13:57:51;;;;;;;45.97;5.57;;;;;;;22.82;47.37;99222.38;4892524;29;19945;-89
2021/08/21 14:00:17;;;;;;;19.85;4.90;;;;;;;22.77;47.88;99231.13;4860957;29;20131;-87
2021/08/21 14:02:43;;;;;;;33.13;6.22;;;;;;;22.42;48.36;99188.13;4891753;29;20048;-87
2021/08/21 14:05:10;;;;;;;26.05;4.45;;;;;;;22.45;48.78;99232.69;4871701;29;20044;-87
2021/08/21 14:07:39;;;;;;;37.47;5.18;;;;;;;22.16;48.65;99203.19;4880667;29;20047;-88
2021/08/21 14:10:07;;;;;;;44.70;7.47;;;;;;;21.79;48.83;99168.84;4891103;29;20048;-91
2021/08/21 14:12:32;;;;;;;34.70;5.97;;;;;;;22.02;50.05;99210.28;4892254;29;20049;-87
2021/08/21 14:15:02;;;;;;;33.25;5.40;;;;;;;21.85;49.75;99205.41;4892088;29;20057;-86
2021/08/21 14:17:29;;;;;;;35.53;5.78;;;;;;;21.99;50.18;99216.63;4889615;29;20467;-78
2021/08/21 14:19:56;;;;;;;15.52;4.05;;;;;;;21.75;50.58;99206.97;4883019;29;20550;-87
2021/08/21 14:22:22;;;;;;;16.90;4.57;;;;;;;21.72;51.18;99224.47;4871571;29;20132;-85
2021/08/21 14:24:48;;;;;;;28.43;5.03;;;;;;;21.57;51.79;99212.47;4873028;29;20778;-85
2021/08/21 14:27:14;;;;;;;38.43;6.10;;;;;;;21.51;51.92;99207.66;4871460;29;20128;-85
2021/08/21 14:29:40;;;;;;;26.30;5.47;;;;;;;21.50;52.34;99211.63;4879342;29;20116;-87
2021/08/21 14:32:08;;;;;;;14.67;4.83;;;;;;;21.27;53.00;99195.97;4882490;29;20056;-85
2021/08/21 14:34:35;;;;;;;27.13;6.00;;;;;;;21.40;52.77;99206.81;4893333;29;20040;-88
2021/08/21 14:37:01;;;;;;;41.67;6.67;;;;;;;21.30;53.20;99195.19;4884407;29;20050;-85
2021/08/21 14:39:28;;;;;;;27.70;5.90;;;;;;;21.42;53.97;99215.53;4904812;29;20048;-87
2021/08/21 14:41:54;;;;;;;18.53;5.37;;;;;;;21.35;53.81;99194.06;4888873;29;20041;-87
2021/08/21 14:44:20;;;;;;;30.58;6.65;;;;;;;21.25;53.87;99195.56;4896901;29;20483;-86
2021/08/21 14:46:46;;;;;;;63.03;7.20;;;;;;;21.34;53.98;99215.50;4897303;29;20044;-83
2021/08/21 14:49:14;;;;;;;27.15;5.65;;;;;;;21.18;54.71;99212.19;4889889;29;20112;-85
2021/08/21 14:51:41;;;;;;;39.77;5.90;;;;;;;21.25;54.59;99212.25;4902637;29;20043;-81
2021/08/21 14:54:07;;;;;;;21.60;5.72;;;;;;;21.20;55.00;99215.41;4897270;29;20064;-79
2021/08/21 14:56:33;;;;;;;33.22;5.95;;;;;;;21.37;55.84;99205.59;4892617;29;20747;-82
2021/08/21 14:58:59;;;;;;;18.37;5.37;;;;;;;21.35;54.38;99207.97;4888080;29;20748;-82
2021/08/21 15:01:25;;;;;;;20.33;5.00;;;;;;;21.21;54.58;99193.94;4901789;29;20304;-83
2021/08/21 15:03:52;;;;;;;14.33;4.67;;;;;;;21.18;54.85;99194.72;4894907;29;20032;-82
2021/08/21 15:06:18;;;;;;;42.88;6.45;;;;;;;21.26;55.17;99216.63;4896376;29;20032;-83
2021/08/21 15:08:45;;;;;;;24.85;6.72;;;;;;;21.13;55.30;99212.56;4897575;29;20037;-82
2021/08/21 15:11:11;;;;;;;32.50;5.07;;;;;;;21.20;55.06;99215.41;4896620;29;20055;-85
2021/08/21 15:13:37;;;;;;;46.75;7.80;;;;;;;21.13;55.51;99212.56;4892172;29;20386;-83
2021/08/21 15:16:05;;;;;;;39.75;5.97;;;;;;;21.18;54.95;99211.41;4895385;29;20525;-83
2021/08/21 15:18:34;;;;;;;31.15;6.63;;;;;;;20.98;55.25;99194.19;4897201;29;20075;-83
2021/08/21 15:21:00;;;;;;;41.55;6.28;;;;;;;21.05;55.24;99230.38;4893030;29;20036;-83
2021/08/21 15:23:28;;;;;;;21.35;5.80;;;;;;;20.92;55.07;99218.75;4908710;29;20036;-83
2021/08/21 15:25:56;;;;;;;48.35;7.50;;;;;;;20.91;55.38;99233.84;4910324;29;20036;-83
2021/08/21 15:28:22;;;;;;;24.73;5.68;;;;;;;20.94;55.62;99227.50;4887678;29;20045;-84
2021/08/21 15:30:48;;;;;;;66.73;8.03;;;;;;;20.89;54.91;99225.06;4880567;29;20455;-85
2021/08/21 15:33:18;;;;;;;26.52;4.85;;;;;;;21.08;56.28;99222.06;4892887;29;20099;-84
2021/08/21 15:35:45;;;;;;;35.90;5.63;;;;;;;21.22;53.91;99195.53;4909462;29;20048;-82
2021/08/21 15:38:12;;;;;;;22.80;5.90;;;;;;;21.41;56.24;99216.75;4896978;29;20108;-83
2021/08/21 15:40:39;;;;;;;32.88;5.93;;;;;;;21.32;52.99;99220.66;4891738;29;20040;-83
2021/08/21 15:43:05;;;;;;;;;;;;;;;21.33;53.97;99215.88;4881505;29;20051;-84
2021/08/21 15:45:31;;;;;;;34.85;5.30;;;;;;;21.02;53.73;99197.78;4875274;29;19927;-84
2021/08/21 15:47:58;;;;;;;38.93;5.67;;;;;;;21.04;53.05;99220.44;4876398;29;20036;-83
2021/08/21 15:50:24;;;;;;;;;;;;;;;21.11;53.10;99206.59;4876876;29;20075;-84
2021/08/21 15:52:50;;;;;;;38.95;5.05;;;;;;;20.86;52.86;99178.59;4876597;29;20389;-85
2021/08/21 15:55:16;;;;;;;30.60;5.80;;;;;;;20.83;53.34;99194.09;4894060;29;20059;-83
2021/08/21 15:57:43;;;;;;;;;;;;;;;20.86;54.57;99193.31;4881301;29;20046;-83
2021/08/21 16:00:09;;;;;;;27.73;4.53;;;;;;;20.80;53.52;99192.06;4891899;29;19927;-83
2021/08/21 16:02:38;;;;;;;34.25;5.65;;;;;;;20.67;53.18;99188.00;4877058;29;20626;-83
2021/08/21 16:05:06;;;;;;;15.40;4.85;;;;;;;20.49;53.50;99189.78;4880393;29;20523;-83
2021/08/21 16:07:35;;;;;;;37.60;5.78;;;;;;;20.39;54.04;99164.31;4899320;29;20133;-85
2021/08/21 16:10:01;;;;;;;22.83;5.43;;;;;;;20.35;53.92;99182.91;4890565;29;20097;-83
2021/08/21 16:12:28;;;;;;;24.58;4.88;;;;;;;20.25;53.46;99186.38;4889743;29;20055;-84
2021/08/21 16:14:54;;;;;;;25.17;4.90;;;;;;;20.11;53.66;99166.81;4888813;29;20047;-87
2021/08/21 16:17:20;;;;;;;14.50;4.43;;;;;;;20.08;53.36;99195.31;4884053;29;20047;-83
2021/08/21 16:19:46;;;;;;;32.83;5.40;;;;;;;20.12;52.42;99198.94;4892281;29;20041;-81
2021/08/21 16:22:14;;;;;;;14.02;3.85;;;;;;;19.98;52.25;99210.66;4893896;29;20043;-84
2021/08/21 16:24:40;;;;;;;7.97;3.20;;;;;;;20.03;52.07;99220.63;4891086;29;20097;-84
2021/08/21 16:27:06;;;;;;;35.70;5.13;;;;;;;20.02;51.81;99217.06;4900808;29;20592;-81
2021/08/21 16:29:32;;;;;;;51.80;5.32;;;;;;;19.91;51.92;99218.91;4889898;29;20049;-81
2021/08/21 16:32:03;;;;;;;22.15;4.60;;;;;;;19.81;52.30;99209.28;4893976;29;20510;-91
2021/08/21 16:34:29;;;;;;;19.35;4.25;;;;;;;19.54;51.76;99191.09;4863946;29;20254;-95
2021/08/21 16:36:57;;;;;;;26.05;4.75;;;;;;;19.47;52.30;99180.69;4862443;29;20554;-92
2021/08/21 16:39:23;;;;;;;18.10;4.00;;;;;;;19.57;52.49;99212.50;4864755;29;20036;-94
2021/08/21 16:41:49;;;;;;;;;;;;;;;19.72;52.54;99219.88;4874080;29;20453;-90
2021/08/21 16:44:15;;;;;;;17.20;4.90;;;;;;;19.53;52.92;99208.88;4863865;29;20309;-92
2021/08/21 16:46:43;;;;;;;17.45;4.40;;;;;;;19.18;52.68;99151.78;4878978;29;20044;-80
2021/08/21 16:49:09;;;;;;;16.38;4.95;;;;;;;19.54;52.63;99216.84;4895389;29;20036;-93
2021/08/21 16:51:35;;;;;;;11.05;3.72;;;;;;;19.61;52.86;99232.78;4895294;29;20041;-85
2021/08/21 16:54:01;;;;;;;20.83;4.53;;;;;;;19.67;52.98;99239.63;4886928;29;20055;-89
2021/08/21 16:56:30;;;;;;;25.20;4.28;;;;;;;19.61;52.40;99221.69;4899826;29;20044;-88
2021/08/21 16:58:56;;;;;;;12.85;3.85;;;;;;;19.53;52.64;99240.16;4871736;29;20534;-88
2021/08/21 17:01:22;;;;;;;34.17;5.43;;;;;;;19.52;53.12;99235.81;4885257;29;20041;-88
2021/08/21 17:03:48;;;;;;;16.40;4.30;;;;;;;19.41;53.11;99221.00;4882049;29;20399;-89
2021/08/21 17:06:14;;;;;;;11.17;3.83;;;;;;;19.44;53.81;99231.34;4886790;29;20344;-89
2021/08/21 17:08:41;;;;;;;20.97;4.10;;;;;;;19.44;53.33;99223.84;4885394;29;20060;-88
2021/08/21 17:11:08;;;;;;;13.40;4.43;;;;;;;19.28;53.43;99203.00;4889659;29;20931;-91
2021/08/21 17:13:37;;;;;;;13.13;3.85;;;;;;;19.10;53.68;99175.03;4875321;29;20055;-95
2021/08/21 17:16:04;;;;;;;18.85;4.85;;;;;;;19.15;54.07;99181.03;4851670;29;20040;-81
2021/08/21 17:18:31;;;;;;;42.25;5.13;;;;;;;19.19;54.25;99201.28;4891115;29;20070;-82
2021/08/21 17:20:58;;;;;;;24.45;5.53;;;;;;;19.29;54.93;99224.00;4903545;29;20402;-83
2021/08/21 17:23:24;;;;;;;;;;;;;;;19.27;54.96;99229.91;4902507;29;20044;-85
2021/08/21 17:25:51;;;;;;;16.00;4.63;;;;;;;19.20;54.65;99221.47;4894755;29;20006;-81
2021/08/21 17:28:17;;;;;;;16.40;4.67;;;;;;;19.19;54.58;99212.38;4884418;29;20044;-89
2021/08/21 17:30:44;;;;;;;9.48;4.47;;;;;;;18.99;53.92;99189.50;4854093;29;20041;-88
2021/08/21 17:33:10;;;;;;;29.60;5.20;;;;;;;18.97;54.14;99193.81;4886165;29;20052;-86
2021/08/21 17:35:38;;;;;;;13.40;4.28;;;;;;;19.01;53.99;99189.94;4885294;29;20136;-86
2021/08/21 17:38:04;;;;;;;16.02;4.53;;;;;;;18.93;53.90;99184.66;4884419;29;20518;-86
2021/08/21 17:40:30;;;;;;;81.95;7.47;;;;;;;19.05;54.09;99187.22;4881872;29;20051;-88
2021/08/21 17:42:57;;;;;;;32.05;5.95;;;;;;;19.10;53.96;99191.63;4880621;29;20064;-87
2021/08/21 17:45:25;;;;;;;25.30;4.75;;;;;;;19.13;53.81;99191.69;4895701;29;20036;-87
2021/08/21 17:47:52;;;;;;;;;;;;;;;19.22;54.39;99208.06;4897556;29;20040;-88
2021/08/21 17:50:19;;;;;;;12.55;4.80;;;;;;;19.22;54.27;99205.28;4888975;29;19930;-89
2021/08/21 17:52:44;;;;;;;10.20;4.50;;;;;;;19.28;54.24;99208.53;4882899;29;20048;-88
2021/08/21 17:55:13;;;;;;;9.82;4.50;;;;;;;19.42;53.93;99212.31;4914835;29;20071;-85
2021/08/21 17:57:40;;;;;;;13.67;4.40;;;;;;;19.48;54.25;99213.59;4914939;29;20486;-81
2021/08/21 18:00:07;;;;;;;15.65;4.97;;;;;;;19.49;53.92;99193.00;4905639;29;20094;-82
2021/08/21 18:02:35;;;;;;;31.52;6.05;;;;;;;19.62;54.66;99206.63;4914596;29;20040;-81
2021/08/21 18:05:02;;;;;;;16.30;5.03;;;;;;;19.60;54.18;99198.69;4913760;29;20055;-82
2021/08/21 18:07:28;;;;;;;18.27;5.35;;;;;;;19.52;53.43;99180.34;4914710;29;20051;-83
2021/08/21 18:09:54;;;;;;;20.25;5.22;;;;;;;;;;4898987;29;20040;-84
2021/08/21 18:12:21;;;;;;;27.67;4.73;;;;;;;19.69;53.41;99210.31;4897322;29;20132;-83
2021/08/21 18:14:48;;;;;;;16.20;4.38;;;;;;;19.61;52.89;99205.84;4890446;29;20052;-83
2021/08/21 18:17:14;;;;;;;18.00;4.40;;;;;;;19.48;52.79;99202.50;4877640;29;20045;-81
2021/08/21 18:19:40;;;;;;;28.07;5.20;;;;;;;19.46;53.13;99201.25;4876515;29;20049;-82
2021/08/21 18:22:09;;;;;;;12.73;3.97;;;;;;;19.35;52.46;99195.56;4879993;29;20423;-82
2021/08/21 18:24:38;;;;;;;20.05;4.88;;;;;;;19.41;52.93;99207.94;4877827;29;20419;-81
2021/08/21 18:27:05;;;;;;;14.05;4.00;;;;;;;19.36;52.37;99204.69;4882785;29;20059;-84
2021/08/21 18:29:32;;;;;;;21.02;5.40;;;;;;;19.23;53.26;99195.78;4877584;29;20088;-86
2021/08/21 18:31:58;;;;;;;;;;;;;;;19.35;52.83;99214.19;4862490;29;20131;-83
2021/08/21 18:34:26;;;;;;;12.60;4.53;;;;;;;19.22;53.30;99206.09;4878145;29;19934;-89
2021/08/21 18:36:51;;;;;;;20.33;5.00;;;;;;;19.29;52.91;99216.47;4860324;29;20041;-92
2021/08/21 18:39:18;;;;;;;13.68;4.10;;;;;;;19.18;52.88;99188.63;4881647;29;20052;-90
2021/08/21 18:41:45;;;;;;;16.52;4.00;;;;;;;19.39;52.88;99198.41;4882314;29;20056;-90
2021/08/21 18:44:13;;;;;;;23.63;4.90;;;;;;;19.57;52.84;99204.19;4888491;29;20088;-95
2021/08/21 18:46:39;;;;;;;37.07;5.00;;;;;;;19.77;51.77;99180.72;4866839;29;20037;-93
2021/08/21 18:49:06;;;;;;;25.40;5.70;;;;;;;19.95;50.51;99215.00;4878025;29;20050;-87
2021/08/21 18:51:32;;;;;;;7.90;4.20;;;;;;;19.62;51.38;99207.41;4884931;29;20049;-88
2021/08/21 18:54:01;;;;;;;13.02;4.70;;;;;;;19.59;51.70;99208.16;4883516;29;20045;-88
2021/08/21 18:56:30;;;;;;;46.00;6.75;;;;;;;19.65;51.07;99225.31;4864044;29;20049;-84
2021/08/21 18:59:01;;;;;;;93.72;9.10;;;;;;;19.66;52.39;99238.00;4880174;29;20499;-85
2021/08/21 19:01:28;;;;;;;63.53;6.35;;;;;;;19.70;52.86;99233.28;4879561;29;20623;-87
2021/08/21 19:03:55;;;;;;;25.63;5.60;;;;;;;19.75;52.99;99229.41;4880675;29;20044;-83
2021/08/21 19:06:22;;;;;;;15.93;4.53;;;;;;;19.70;52.53;99219.44;4885204;29;20119;-82
2021/08/21 19:08:51;;;;;;;13.27;4.20;;;;;;;19.60;53.01;99214.50;4880981;29;20068;-83
2021/08/21 19:11:17;;;;;;;21.80;5.00;;;;;;;19.54;53.23;99211.28;4883517;29;20081;-88
2021/08/21 19:13:46;;;;;;;14.77;4.47;;;;;;;19.48;53.16;99201.69;4880816;29;20049;-89
2021/08/21 19:16:13;;;;;;;10.90;4.43;;;;;;;19.51;52.33;99223.13;4881018;29;20297;-82
2021/08/21 19:18:43;;;;;;;9.48;4.15;;;;;;;19.46;51.61;99227.00;4876405;29;20053;-87
2021/08/21 19:21:13;;;;;;;9.85;4.78;;;;;;;19.36;52.35;99213.00;4876378;29;20041;-88
2021/08/21 19:23:43;;;;;;;12.18;4.28;;;;;;;19.43;52.58;99226.97;4876739;29;20127;-85
2021/08/21 19:26:11;;;;;;;25.77;5.25;;;;;;;19.30;52.54;99193.13;4878062;29;20037;-87
2021/08/21 19:28:40;;;;;;;17.15;4.57;;;;;;;19.34;52.43;99199.53;4879155;29;20045;-87
2021/08/21 19:31:07;;;;;;;16.70;5.57;;;;;;;19.25;51.91;99185.16;4859799;29;20121;-87
2021/08/21 19:33:33;;;;;;;11.32;4.30;;;;;;;19.40;52.70;99195.28;4870256;29;20045;-84
2021/08/21 19:36:01;;;;;;;14.50;4.63;;;;;;;19.53;50.46;99206.09;4875585;29;20056;-86
2021/08/21 19:38:29;;;;;;;7.65;3.70;;;;;;;19.43;50.48;99200.03;4879131;29;20056;-85
2021/08/21 19:40:57;;;;;;;;;;;;;;;19.43;50.86;99199.25;4875625;29;20399;-86
2021/08/21 19:43:22;;;;;;;10.07;4.15;;;;;;;19.45;51.41;99192.16;4877421;29;19983;-87
2021/08/21 19:45:48;;;;;;;11.60;4.77;;;;;;;19.51;51.35;99206.50;4874984;29;20045;-86
2021/08/21 19:48:14;;;;;;;14.03;4.20;;;;;;;19.44;51.45;99200.84;4875842;29;20096;-83
2021/08/21 19:50:41;;;;;;;25.70;5.03;;;;;;;19.33;51.75;99194.34;4878860;29;20053;-88
2021/08/21 19:53:07;;;;;;;20.25;5.10;;;;;;;19.34;52.27;99207.84;4875821;29;20135;-85
2021/08/21 19:55:34;;;;;;;10.33;4.50;;;;;;;19.22;52.76;99195.00;4865092;29;20143;-87
2021/08/21 19:58:00;;;;;;;13.07;5.60;;;;;;;19.47;53.80;99200.09;4873947;29;20631;-85
2021/08/21 20:00:26;;;;;;;29.40;4.90;;;;;;;19.52;52.99;99201.75;4878438;29;20160;-85
2021/08/21 20:02:54;;;;;;;21.67;5.53;;;;;;;19.67;53.11;99203.56;4883006;29;20056;-79
2021/08/21 20:05:20;;;;;;;42.00;6.13;;;;;;;19.69;53.20;99202.00;4883767;29;20040;-80
2021/08/21 20:07:46;;;;;;;;;;;;;;;19.74;53.47;99198.09;4896488;29;20052;-79
2021/08/21 20:10:12;;;;;;;10.43;4.67;;;;;;;19.97;54.64;99198.00;4894013;29;19923;-79
2021/08/21 20:12:38;;;;;;;9.20;4.18;;;;;;;19.99;54.40;99192.03;4883055;29;20036;-78
2021/08/21 20:15:05;;;;;;;11.43;5.20;;;;;;;19.81;54.25;99202.94;4885602;29;20063;-80
2021/08/21 20:17:31;;;;;;;14.63;4.10;;;;;;;19.63;55.07;99203.50;4896499;29;20136;-83
2021/08/21 20:19:57;;;;;;;9.20;4.43;;;;;;;19.45;55.69;99206.00;4896500;29;20176;-84
2021/08/21 20:22:24;;;;;;;11.95;3.80;;;;;;;19.31;55.61;99193.94;4896024;29;20044;-84
2021/08/21 20:24:50;;;;;;;10.40;4.00;;;;;;;19.24;55.73;99178.00;4892734;29;20407;-85
2021/08/21 20:27:16;;;;;;;8.57;3.80;;;;;;;19.40;55.80;99209.13;4896050;29;20180;-85
2021/08/21 20:29:42;;;;;;;14.77;3.90;;;;;;;19.37;55.55;99190.47;4896031;29;20413;-83
2021/08/21 20:32:08;;;;;;;12.63;3.87;;;;;;;19.18;56.17;99174.75;4895930;29;20052;-85
2021/08/21 20:34:37;;;;;;;10.97;4.00;;;;;;;19.30;56.84;99201.44;4894314;29;20558;-84
